This is the latest recevied weather packets stored in our database for station/object HB9TJM-8. If no packets are shown the sender has not sent any weather packets the latest 10 day(s).
| Time | Temp. | Humidity | Pressure | Rain* | Wind** | Luminosity | Snow |
|---|---|---|---|---|---|---|---|
| 1777459458 | 12.78° C | 72% | 1017.9 hPa | 0 mm | - | 770 W/m² | - |
| 1777459150 | 12.78° C | 73% | 1018.4 hPa | 0 mm | - | 780 W/m² | - |
| 1777459150 | 12.78° C | 73% | 1018.4 hPa | 0 mm | - | 780 W/m² | - |
| 1777458843 | 12.22° C | 73% | 1018.2 hPa | 0 mm | - | 721 W/m² | - |
| 1777458843 | 12.22° C | 73% | 1018.2 hPa | 0 mm | - | 721 W/m² | - |
| 1777458535 | 12.22° C | 74% | 1018 hPa | 0 mm | - | 632 W/m² | - |
| 1777458228 | 11.67° C | 75% | 1018.1 hPa | 0 mm | - | 579 W/m² | - |
| 1777457920 | 12.22° C | 72% | 1018.3 hPa | 0 mm | - | 733 W/m² | - |
| 1777457920 | 12.22° C | 72% | 1018.3 hPa | 0 mm | - | 733 W/m² | - |
| 1777457614 | 12.78° C | 71% | 1018.2 hPa | 0 mm | - | 737 W/m² | - |
| 1777457613 | 12.78° C | 71% | 1018.2 hPa | 0 mm | - | 737 W/m² | - |
| 1777457306 | 12.78° C | 73% | 1018 hPa | 0 mm | - | 612 W/m² | - |
| 1777456691 | 11.67° C | 75% | 1018.1 hPa | 0 mm | - | 654 W/m² | - |
| 1777456691 | 11.67° C | 75% | 1018.1 hPa | 0 mm | - | 654 W/m² | - |
| 1777456384 | 11.67° C | 74% | 1017.9 hPa | 0 mm | - | 558 W/m² | - |
| 1777456076 | 11.67° C | 75% | 1018.3 hPa | 0 mm | - | 579 W/m² | - |
| 1777456076 | 11.67° C | 75% | 1018.3 hPa | 0 mm | - | 579 W/m² | - |
| 1777455152 | 11.67° C | 74% | 1017.9 hPa | 0 mm | - | 446 W/m² | - |
| 1777455152 | 11.67° C | 74% | 1017.9 hPa | 0 mm | - | 446 W/m² | - |
| 1777454845 | 11.67° C | 74% | 1018 hPa | 0 mm | - | 504 W/m² | - |
| 1777454538 | 11.11° C | 73% | 1018.1 hPa | 0 mm | - | 409 W/m² | - |
| 1777454538 | 11.11° C | 73% | 1018.1 hPa | 0 mm | - | 409 W/m² | - |
| 1777454230 | 11.11° C | 75% | 1017.7 hPa | 0 mm | - | 403 W/m² | - |
| 1777453922 | 11.11° C | 76% | 1017.7 hPa | 0 mm | - | 391 W/m² | - |
| 1777453615 | 11.11° C | 76% | 1018.2 hPa | 0 mm | - | 411 W/m² | - |
* Rain latest hour (hover to see other rain measurements)
** Current wind speed in m/s (hover to see current wind gust speed)